Flight Track Log - Related Links

Times and Time Zones

All times are in EDT time to prevent confusion due to time zone crossing. See the SWA2800 flight status page for this flight to view local times or setup timezone preferences in your user account.

Time Position Orientation Groundspeed Altitude Reporting Facility
EDT Latitude Longitude Course Direction KTS MPH feet Rate Location/Type
Sat 08:26:22 PM 36.1667 -86.6667 360° North 174 200 2,300  Level Nashville TRACON
Sat 08:27:16 PM 36.2167 -86.6500 15° North 239 275 4,900 3,371 Climbing Nashville TRACON
Sat 08:28:07 PM 36.2772 -86.6139 26° Northeast 283 326 8,200 4,216 Climbing Memphis Center
Sat 08:29:07 PM 36.3533 -86.5794 20° North 308 354 12,700 4,150 Climbing Memphis Center
Sat 08:30:07 PM 36.4436 -86.5392 20° North 330 380 16,500 3,850 Climbing Memphis Center
Sat 08:31:07 PM 36.5403 -86.4931 21° North 354 407 20,400 3,500 Climbing Memphis Center
Sat 08:32:07 PM 36.6428 -86.4417 22° Northeast 378 435 23,500 2,900 Climbing Memphis Center
Sat 08:33:07 PM 36.7536 -86.3844 22° Northeast 403 464 26,200 2,621 Climbing Memphis Center
Sat 08:35:17 PM 37.0017 -86.2628 21° North 447 514 31,800 2,147 Climbing Indianapolis Center
Sat 08:36:17 PM 37.1253 -86.1997 22° Northeast 470 541 33,000 595 Climbing Indianapolis Center
Sat 08:37:18 PM 37.2461 -86.1381 22° Northeast 468 539 33,000  Level Indianapolis Center
Sat 08:38:19 PM 37.3633 -86.0625 27° Northeast 468 539 33,000  Level Indianapolis Center
Sat 08:39:20 PM 37.4806 -85.9856 28° Northeast 470 541 33,000  Level Indianapolis Center
Sat 08:40:20 PM 37.5828 -85.9200 27° Northeast 466 536 33,000  Level Indianapolis Center
Sat 08:41:21 PM 37.6986 -85.8444 27° Northeast 468 539 33,000  Level Indianapolis Center
Sat 08:42:22 PM 37.8125 -85.7686 28° Northeast 464 534 33,000  Level Indianapolis Center
Sat 08:43:23 PM 37.9286 -85.6925 27° Northeast 468 539 33,000  Level Indianapolis Center
Sat 08:44:24 PM 38.0442 -85.6153 28° Northeast 468 539 33,000 -198 Level Indianapolis Center
Sat 08:45:24 PM 38.1581 -85.5261 32° Northeast 480 552 32,600 -645 Descending Indianapolis Center
Sat 08:46:25 PM 38.2639 -85.4253 37° Northeast 479 551 31,700 -787 Descending Indianapolis Center
Sat 08:47:26 PM 38.3922 -85.3031 37° Northeast 479 551 31,000 -344 Descending Indianapolis Center
Sat 08:48:27 PM 38.4967 -85.2044 36° Northeast 475 547 31,000  Level Indianapolis Center
Sat 08:49:27 PM 38.6050 -85.1003 37° Northeast 476 548 31,000 -50 Level Indianapolis Center
Sat 08:50:28 PM 38.7053 -85.0033 37° Northeast 471 542 30,900 -885 Descending Indianapolis Center
Sat 08:51:29 PM 38.8031 -84.9097 37° Northeast 444 511 29,200 -2,066 Descending Indianapolis Center
Sat 08:52:30 PM 38.8992 -84.8156 37° Northeast 439 505 26,700 -2,380 Descending Indianapolis Center
Sat 08:53:30 PM 38.9928 -84.7258 37° Northeast 446 513 24,400 -1,686 Descending Indianapolis Center
Sat 08:54:31 PM 39.0703 -84.6033 51° Northeast 443 510 23,300 -1,033 Descending Indianapolis Center
Sat 08:55:32 PM 39.1397 -84.4778 54° Northeast 437 503 22,300 -1,082 Descending Indianapolis Center
Sat 08:56:33 PM 39.2214 -84.3292 55° Northeast 427 491 21,100 -1,091 Descending Indianapolis Center
Sat 08:57:33 PM 39.2900 -84.2058 54° Northeast 423 487 20,100 -992 Descending Indianapolis Center
Sat 08:58:34 PM 39.3419 -84.0719 63° Northeast 419 482 19,100 -984 Descending Indianapolis Center
Sat 08:59:35 PM 39.3931 -83.9397 63° Northeast 415 478 18,100 -1,033 Descending Indianapolis Center
Sat 09:00:36 PM 39.4478 -83.7981 63° Northeast 405 466 17,000 -1,442 Descending Indianapolis Center
Sat 09:01:19 PM 39.4819 -83.7089 64° Northeast 394 453 15,600 -1,900 Descending Indianapolis Center
Sat 09:01:36 PM 39.4911 -83.6828 66° East 398 458 15,100 -2,000 Descending Indianapolis Center
Sat 09:02:19 PM 39.5281 -83.5864 64° Northeast 382 440 13,600 -1,967 Descending Indianapolis Center
Sat 09:02:37 PM 39.5372 -83.5611 65° Northeast 384 442 13,100 -1,770 Descending Indianapolis Center
Sat 09:03:20 PM 39.5736 -83.4692 63° Northeast 361 415 11,800 -1,475 Descending Indianapolis Center
Sat 09:03:38 PM 39.5808 -83.4458 68° East 364 419 11,600 -1,180 Descending Indianapolis Center
Sat 09:04:21 PM 39.6236 -83.3686 54° Northeast 331 381 10,600 -1,180 Descending Indianapolis Center
Sat 09:04:39 PM 39.6336 -83.3489 57° Northeast 335 386 10,400 -600 Descending Indianapolis Center
Sat 09:05:21 PM 39.6811 -83.2750 50° Northeast 334 384 10,000 -393 Descending Indianapolis Center
Sat 09:05:40 PM 39.6889 -83.2564 61° Northeast 331 381 10,000 -1,475 Level Indianapolis Center
Sat 09:06:22 PM 39.7342 -83.1831 51° Northeast 291 335 8,500 -2,000 Descending Indianapolis Center
Sat 09:06:40 PM 39.7492 -83.1583 52° Northeast 297 342 8,000 -1,377 Descending Indianapolis Center
Sat 09:07:23 PM 39.7864 -83.1017 49° Northeast 296 341 7,100 -1,279 Descending Indianapolis Center
Sat 09:07:41 PM 39.7981 -83.0747 61° Northeast 294 338 6,700 -1,100 Descending Indianapolis Center
Sat 09:08:23 PM 39.8103 -83.0047 77° East 287 330 6,000 -984 Descending Indianapolis Center
Sat 09:08:42 PM 39.8150 -82.9742 79° East 284 327 5,700 -1,418 Descending Indianapolis Center
Sat 09:09:18 PM 39.8275 -82.9119 75° East 283 326 4,700 -1,574 Descending Indianapolis Center
Sat 09:09:43 PM 39.8342 -82.8747 77° East 285 328 4,100 -600 Descending Indianapolis Center
Sat 09:10:18 PM 39.8625 -82.8306 50° Northeast 249 287 4,100 -295 Level Indianapolis Center
Sat 09:10:44 PM 39.8783 -82.8072 49° Northeast 254 292 3,800 -837 Descending Indianapolis Center
Sat 09:11:44 PM 39.9250 -82.7492 44° Northeast 240 276 2,900 -667 Descending Indianapolis Center
Sat 09:12:14 PM 39.9539 -82.7522 355° North 193 222 2,800 -393 Descending Indianapolis Center
Sat 09:12:45 PM 39.9767 -82.7542 356° North 207 238 2,500 -545 Descending Indianapolis Center
Sat 09:13:20 PM 39.9864 -82.7872 291° West 124 143 2,200 -590 Descending Indianapolis Center
Sat 09:13:46 PM 39.9889 -82.7975 288° West 157 181 1,900 -689 Descending Indianapolis Center
Sat 09:14:21 PM 39.9889 -82.8286 270° West 103 119 1,500 -492 Descending Indianapolis Center
Sat 09:14:47 PM 39.9894 -82.8375 275° West 129 148 1,400 -276 Descending Indianapolis Center
Sat 09:15:48 PM 39.9914 -82.8758 274° West 123 142 1,100 -295 Descending Indianapolis Center
Sat 09:17:00 PM 39.9833 -82.8833 270° West  Level FlightAware Approximate

Login

Don't have an account? Register now (free) for customized features, flight alerts, and more!